Arcata, CA (95518)

1:08 AM PDT on August 30, 2015 (GMT -0700)
Woodland Heights | | Change Station
CLOSE
Current Station
Personal Weather Station
Location: Arcata, CA
Elevation: 194 ft
Nearby Weather Stations

Elev 194 ft 40.89 °N, 124.07 °W | Updated 5 minutes ago

Overcast
Overcast
60.5 °F
Feels Like 60.5 °F
N
0.0
Wind Variable Wind from North
Gusts 0.0 mph

Today
High -- | Low -- °F
--% Chance of Precip.
Yesterday
High -- | Low -- °F
Precip. -- in
6:41 AM 7:52 PM
Full, 100% visible
Pressure 30.03 in
Visibility 10.0 miles
Clouds Few 3800 ft
Mostly Cloudy 5000 ft
Dew Point 59 °F
Humidity 95%
Rainfall 0.00 in
Snow Depth Not available.
UV 0 out of 12
Pollen 3.70 out of 12
Air Quality Not available.
Flu Activity Not available.
METAR KACV 300753Z AUTO 00000KT 10SM FEW038 BKN050 17/14 A3002 RMK AO2 SLP168 T01670144 402220161
Pressure 30.03 in
Visibility 10.0 miles
Clouds Few 3800 ft
Mostly Cloudy 5000 ft
Dew Point 59 °F
Humidity 95%
Rainfall 0.00 in
Snow Depth Not available.
UV 0 out of 12
Pollen 3.70 out of 12
Air Quality Not available.
Flu Activity Not available.
METAR KACV 300753Z AUTO 00000KT 10SM FEW038 BKN050 17/14 A3002 RMK AO2 SLP168 T01670144 402220161

10-Day Weather Forecast

×

Almanac

Astronomy

Aug. 30, 2015 Rise Set
Actual Time
Civil Twilight
Nautical Twilight
Astronomical Twilight
Moon
Length of Visible Light
Length of Day
Tomorrow will be .
, % of the Moon is Illuminated

Today's Extremes

State Highs State Lows

Community

WunderPhotos

Upload Photos

1,850,906 photos uploaded!

WunderBlogs® & News

Nearby

Air Quality

  Air Quality AQ Index Pollutant
Not available.

Snow Depth

Station Depth Elevation

Earthquake Activity

City Distance Mag. Time & Date
Minimum magnitude displayed is 2.5.

Coastal Water Temperatures

Place Temperature

Stations

Nearby Weather Stations

Station Location Temp. Windchill Dew Point Humidity Wind Precip. Elev Updated Type